Terminal Aerodrome Forecast
Issued by NWS

Current Version | Previous Version | Text Only | Print | Product List | Glossary On
Versions: 1 2 3 4 5 6 7 8 9 10 11 12 13 14 15
000
FTUS45 KTFX 020500
TAFLWT
TAF
KLWT 020520Z 0206/0306 28014KT P6SM SCT060 BKN100
     FM020800 29014KT P6SM SCT045 BKN060
      TEMPO 0208/0212 -SHSN BKN045
     FM021200 28012KT P6SM VCSH BKN080
     FM021900 32011KT P6SM VCSH SCT040 BKN070 PROB30 0221/0302 -SHRA
     FM030200 25008KT P6SM BKN090=

USA.gov is the U.S. government's official web portal to all federal, state and local government web resources and services.